createdAt,value
2023-02-17T00:00:39.313Z,101248.72
2023-02-17T00:03:05.936Z,101253.69
2023-02-17T00:05:32.636Z,101251.50
2023-02-17T00:07:59.345Z,101254.25
2023-02-17T00:10:26.037Z,101251.50
2023-02-17T00:12:52.810Z,101247.59
2023-02-17T00:15:19.529Z,101244.31
2023-02-17T00:17:46.257Z,101248.72
2023-02-17T00:20:12.992Z,101246.22
2023-02-17T00:22:39.824Z,101249.00
2023-02-17T00:25:06.907Z,101250.94
2023-02-17T00:27:33.794Z,101250.66
2023-02-17T00:30:00.591Z,101258.94
2023-02-17T00:32:27.292Z,101254.25
2023-02-17T00:34:56.250Z,101259.78
2023-02-17T00:37:22.942Z,101259.78
2023-02-17T00:39:49.746Z,101260.63
2023-02-17T00:42:18.794Z,101254.25
2023-02-17T00:44:45.494Z,101249.56
2023-02-17T00:47:13.378Z,101242.63
2023-02-17T00:49:40.193Z,101239.28
2023-02-17T00:52:07.005Z,101240.13
2023-02-17T00:54:33.855Z,101245.66
2023-02-17T00:57:00.708Z,101233.50
2023-02-17T00:59:27.673Z,101223.84
2023-02-17T01:01:54.356Z,101218.84
2023-02-17T01:04:21.137Z,101226.03
2023-02-17T01:06:47.886Z,101221.59
2023-02-17T01:09:15.155Z,101218.00
2023-02-17T01:11:42.414Z,101210.53
2023-02-17T01:14:11.971Z,101205.03
2023-02-17T01:16:40.720Z,101198.38
2023-02-17T01:19:11.605Z,101192.31
2023-02-17T01:21:38.931Z,101198.66
2023-02-17T01:24:08.151Z,101202.78
2023-02-17T01:26:36.939Z,101204.75
2023-02-17T01:29:05.645Z,101201.16
2023-02-17T01:31:32.900Z,101195.63
2023-02-17T01:34:02.805Z,101192.84
2023-02-17T01:36:29.682Z,101179.03
2023-02-17T01:38:56.321Z,101187.34
2023-02-17T01:41:28.293Z,101181.81
2023-02-17T01:44:25.559Z,101180.66
2023-02-17T01:46:54.709Z,101181.81
2023-02-17T01:49:29.874Z,101170.75
2023-02-17T01:52:02.548Z,101180.38
2023-02-17T01:54:47.081Z,101165.72
2023-02-17T01:57:18.200Z,101158.84
2023-02-17T01:59:46.436Z,101156.91
2023-02-17T02:02:14.362Z,101155.78
2023-02-17T02:04:44.945Z,101151.09
2023-02-17T02:07:17.530Z,101151.09
2023-02-17T02:09:51.504Z,101155.00
2023-02-17T02:12:27.409Z,101153.03
2023-02-17T02:15:06.851Z,101155.78
2023-02-17T02:17:48.243Z,101156.34
2023-02-17T02:20:41.945Z,101147.72
2023-02-17T02:23:27.266Z,101144.13
2023-02-17T02:26:10.550Z,101150.25
2023-02-17T02:29:18.733Z,101145.56
2023-02-17T02:32:22.976Z,101134.50
2023-02-17T02:35:19.971Z,101141.69
2023-02-17T02:37:52.150Z,101138.09
2023-02-17T02:40:23.869Z,101135.06
2023-02-17T02:42:50.946Z,101135.31
2023-02-17T02:45:19.382Z,101142.50
2023-02-17T02:47:49.603Z,101150.81
2023-02-17T02:50:59.758Z,101153.56
2023-02-17T02:53:53.905Z,101163.50
2023-02-17T02:57:02.937Z,101160.72
2023-02-17T02:59:50.007Z,101165.47
2023-02-17T03:02:45.571Z,101163.50
2023-02-17T03:05:43.009Z,101162.38
2023-02-17T03:08:15.062Z,101159.63
2023-02-17T03:10:51.049Z,101156.03
2023-02-17T03:13:20.082Z,101152.16
2023-02-17T03:15:48.041Z,101161.56
2023-02-17T03:18:15.464Z,101156.84
2023-02-17T03:20:57.399Z,101148.56
2023-02-17T03:23:25.718Z,101140.28
2023-02-17T03:25:52.824Z,101137.81
2023-02-17T03:28:19.489Z,101142.22
2023-02-17T03:30:47.088Z,101122.03
2023-02-17T03:33:13.936Z,101122.03
2023-02-17T03:35:40.730Z,101130.03
2023-02-17T03:38:07.479Z,101141.09
2023-02-17T03:40:34.254Z,101141.38
2023-02-17T03:43:01.025Z,101135.84
2023-02-17T03:45:27.679Z,101134.75
2023-02-17T03:47:54.366Z,101134.75
2023-02-17T03:50:21.012Z,101124.19
2023-02-17T03:52:47.689Z,101124.16
2023-02-17T03:55:14.374Z,101127.44
2023-02-17T03:57:41.030Z,101125.78
2023-02-17T04:00:08.262Z,101123.09
2023-02-17T04:02:41.574Z,101113.44
2023-02-17T04:05:09.560Z,101128.38
2023-02-17T04:07:36.359Z,101130.31
2023-02-17T04:10:05.481Z,101130.63
2023-02-17T04:12:33.167Z,101129.78
2023-02-17T04:15:00.017Z,101130.63
2023-02-17T04:17:26.884Z,101142.50
2023-02-17T04:19:53.700Z,101130.91
2023-02-17T04:22:20.312Z,101129.78
2023-02-17T04:24:46.977Z,101126.19
2023-02-17T04:27:13.699Z,101125.38
2023-02-17T04:29:40.607Z,101120.16
2023-02-17T04:32:07.448Z,101118.50
2023-02-17T04:34:34.235Z,101124.84
2023-02-17T04:37:00.878Z,101135.09
2023-02-17T04:39:27.545Z,101137.56
2023-02-17T04:41:54.436Z,101141.44
2023-02-17T04:44:21.261Z,101149.22
2023-02-17T04:46:47.963Z,101145.31
2023-02-17T04:49:14.794Z,101146.97
2023-02-17T04:51:41.644Z,101150.84
2023-02-17T04:54:08.218Z,101154.44
2023-02-17T04:56:34.911Z,101157.50
2023-02-17T04:59:01.550Z,101159.44
2023-02-17T05:01:28.637Z,101161.09
2023-02-17T05:03:55.455Z,101158.34
2023-02-17T05:06:22.198Z,101149.22
2023-02-17T05:08:50.600Z,101141.44
2023-02-17T05:11:17.406Z,101143.69
2023-02-17T05:13:44.039Z,101140.69
2023-02-17T05:16:11.052Z,101146.72
2023-02-17T05:18:38.256Z,101135.97
2023-02-17T05:21:04.997Z,101130.13
2023-02-17T05:23:31.900Z,101134.84
2023-02-17T05:25:58.945Z,101132.63
2023-02-17T05:28:25.753Z,101140.38
2023-02-17T05:30:55.068Z,101138.75
2023-02-17T05:33:21.790Z,101140.38
2023-02-17T05:35:48.384Z,101129.31
2023-02-17T05:38:15.048Z,101127.38
2023-02-17T05:40:41.712Z,101122.16
2023-02-17T05:43:08.470Z,101126.84
2023-02-17T05:45:35.047Z,101120.50
2023-02-17T05:48:01.674Z,101113.34
2023-02-17T05:50:28.570Z,101128.50
2023-02-17T05:53:02.352Z,101123.25
2023-02-17T05:55:29.006Z,101128.78
2023-02-17T05:57:55.706Z,101117.72
2023-02-17T06:00:22.490Z,101126.03
2023-02-17T06:02:49.250Z,101127.69
2023-02-17T06:05:16.312Z,101137.09
2023-02-17T06:07:43.261Z,101140.16
2023-02-17T06:10:12.015Z,101138.75
2023-02-17T06:12:39.002Z,101137.09
2023-02-17T06:15:06.225Z,101136.25
2023-02-17T06:17:33.086Z,101146.50
2023-02-17T06:19:59.917Z,101135.44
2023-02-17T06:22:26.783Z,101145.69
2023-02-17T06:24:53.547Z,101144.84
2023-02-17T06:27:20.342Z,101138.22
2023-02-17T06:29:47.197Z,101129.94
2023-02-17T06:32:14.067Z,101140.16
2023-02-17T06:34:40.710Z,101146.50
2023-02-17T06:37:07.472Z,101142.59
2023-02-17T06:39:34.251Z,101144.25
2023-02-17T06:42:01.081Z,101149.78
2023-02-17T06:44:27.924Z,101140.97
2023-02-17T06:46:54.889Z,101152.03
2023-02-17T06:49:22.139Z,101156.72
2023-02-17T06:51:49.116Z,101150.38
2023-02-17T06:54:15.844Z,101149.53
2023-02-17T06:56:42.603Z,101154.25
2023-02-17T06:59:09.274Z,101157.00
2023-02-17T07:01:35.913Z,101157.84
2023-02-17T07:04:02.703Z,101163.69
2023-02-17T07:06:29.327Z,101161.44
2023-02-17T07:08:55.976Z,101165.31
2023-02-17T07:11:22.872Z,101163.69
2023-02-17T07:13:49.706Z,101154.25
2023-02-17T07:16:16.417Z,101159.78
2023-02-17T07:18:43.161Z,101176.34
2023-02-17T07:21:10.597Z,101172.50
2023-02-17T07:23:38.955Z,101172.50
2023-02-17T07:26:09.264Z,101178.03
2023-02-17T07:28:36.462Z,101176.34
2023-02-17T07:31:11.124Z,101168.38
2023-02-17T07:33:38.167Z,101170.84
2023-02-17T07:36:12.762Z,101169.22
2023-02-17T07:38:40.219Z,101165.59
2023-02-17T07:41:07.632Z,101159.78
2023-02-17T07:43:34.851Z,101155.06
2023-02-17T07:46:04.091Z,101149.53
2023-02-17T07:48:31.458Z,101143.19
2023-02-17T07:51:03.819Z,101145.97
2023-02-17T07:53:33.035Z,101149.53
2023-02-17T07:55:59.748Z,101152.03
2023-02-17T07:58:26.370Z,101151.72
2023-02-17T08:00:53.054Z,101152.03
2023-02-17T08:03:19.679Z,101154.25
2023-02-17T08:05:48.156Z,101161.44
2023-02-17T08:08:34.236Z,101158.38
2023-02-17T08:11:20.301Z,101163.88
2023-02-17T08:13:47.236Z,101155.06
2023-02-17T08:16:13.861Z,101156.44
2023-02-17T08:18:40.486Z,101154.81
2023-02-17T08:21:07.431Z,101164.72
2023-02-17T08:23:35.301Z,101155.31
2023-02-17T08:26:01.960Z,101166.38
2023-02-17T08:28:28.640Z,101160.84
2023-02-17T08:30:55.515Z,101168.63
2023-02-17T08:33:22.263Z,101170.25
2023-02-17T08:35:49.018Z,101168.00
2023-02-17T08:38:16.163Z,101170.78
2023-02-17T08:40:42.795Z,101170.25
2023-02-17T08:43:10.218Z,101170.25
2023-02-17T08:45:37.533Z,101176.59
2023-02-17T08:48:05.443Z,101171.91
2023-02-17T08:50:33.009Z,101177.44
2023-02-17T08:52:59.770Z,101181.31
2023-02-17T08:55:26.556Z,101174.38
2023-02-17T08:57:54.078Z,101171.31
2023-02-17T09:00:21.095Z,101167.22
2023-02-17T09:02:48.009Z,101168.00
2023-02-17T09:05:15.258Z,101167.47
2023-02-17T09:07:42.055Z,101176.84
2023-02-17T09:10:12.760Z,101170.78
2023-02-17T09:12:40.453Z,101166.38
2023-02-17T09:15:07.912Z,101167.41
2023-02-17T09:17:37.887Z,101177.38
2023-02-17T09:20:16.288Z,101190.38
2023-02-17T09:22:51.459Z,101185.66
2023-02-17T09:25:18.291Z,101184.00
2023-02-17T09:27:45.103Z,101184.84
2023-02-17T09:30:12.511Z,101195.06
2023-02-17T09:32:42.123Z,101185.66
2023-02-17T09:35:12.895Z,101188.44
2023-02-17T09:37:39.670Z,101192.84
2023-02-17T09:40:07.624Z,101181.81
2023-02-17T09:42:39.604Z,101187.34
2023-02-17T09:45:14.289Z,101182.63
2023-02-17T09:47:47.107Z,101172.38
2023-02-17T09:50:29.645Z,101171.25
2023-02-17T09:53:07.960Z,101159.09
2023-02-17T09:55:41.398Z,101164.63
2023-02-17T09:58:32.627Z,101159.09
2023-02-17T10:01:03.749Z,101155.19
2023-02-17T10:03:37.466Z,101157.69
2023-02-17T10:06:15.363Z,101165.66
2023-02-17T10:08:59.520Z,101167.59
2023-02-17T10:11:32.113Z,101167.34
2023-02-17T10:14:21.524Z,101165.09
2023-02-17T10:16:50.978Z,101167.84
2023-02-17T10:19:28.325Z,101172.28
2023-02-17T10:22:19.156Z,101170.03
2023-02-17T10:24:45.958Z,101168.94
2023-02-17T10:27:40.910Z,101173.31
2023-02-17T10:30:25.245Z,101171.09
2023-02-17T10:32:57.957Z,101175.81
2023-02-17T10:35:51.390Z,101190.47
2023-02-17T10:38:23.861Z,101186.56
2023-02-17T10:40:51.629Z,101196.50
2023-02-17T10:43:25.471Z,101196.50
2023-02-17T10:45:53.430Z,101199.00
2023-02-17T10:48:32.233Z,101202.56
2023-02-17T10:51:00.872Z,101194.28
2023-02-17T10:53:33.058Z,101203.13
2023-02-17T10:56:20.715Z,101203.13
2023-02-17T10:59:04.294Z,101204.75
2023-02-17T11:01:31.076Z,101209.69
2023-02-17T11:04:06.391Z,101209.69
2023-02-17T11:06:37.897Z,101222.41
2023-02-17T11:09:17.408Z,101224.06
2023-02-17T11:12:00.397Z,101226.84
2023-02-17T11:14:31.361Z,101220.47
2023-02-17T11:17:14.377Z,101226.53
2023-02-17T11:19:41.108Z,101217.41
2023-02-17T11:22:31.309Z,101219.88
2023-02-17T11:24:59.920Z,101236.19
2023-02-17T11:27:27.702Z,101236.69
2023-02-17T11:30:05.867Z,101233.41
2023-02-17T11:32:33.112Z,101218.75
2023-02-17T11:35:06.293Z,101227.88
2023-02-17T11:37:42.170Z,101220.41
2023-02-17T11:40:26.422Z,101204.66
2023-02-17T11:43:00.837Z,101201.28
2023-02-17T11:45:37.626Z,101202.41
2023-02-17T11:48:31.697Z,101194.63
2023-02-17T11:51:20.006Z,101198.22
2023-02-17T11:53:59.211Z,101192.41
2023-02-17T11:56:31.029Z,101195.69
2023-02-17T11:59:09.956Z,101197.63
2023-02-17T12:01:42.418Z,101188.50
2023-02-17T12:04:32.456Z,101190.16
2023-02-17T12:07:36.061Z,101181.03
2023-02-17T12:10:07.236Z,101166.91
2023-02-17T12:12:56.021Z,101166.91
2023-02-17T12:15:31.770Z,101153.63
2023-02-17T12:18:16.798Z,101163.25
2023-02-17T12:20:55.307Z,101156.63
2023-02-17T12:23:48.881Z,101162.97
2023-02-17T12:26:18.712Z,101170.66
2023-02-17T12:29:00.629Z,101152.94
2023-02-17T12:31:27.367Z,101146.06
2023-02-17T12:34:00.098Z,101143.00
2023-02-17T12:36:38.124Z,101137.19
2023-02-17T12:39:17.460Z,101144.66
2023-02-17T12:42:07.214Z,101151.84
2023-02-17T12:44:40.341Z,101149.59
2023-02-17T12:47:32.125Z,101136.59
2023-02-17T12:50:06.679Z,101139.03
2023-02-17T12:52:40.478Z,101150.94
2023-02-17T12:55:10.020Z,101147.88
2023-02-17T12:57:58.088Z,101166.19
2023-02-17T13:00:38.836Z,101175.31
2023-02-17T13:03:06.511Z,101166.72
2023-02-17T13:05:46.393Z,101182.72
2023-02-17T13:08:25.487Z,101178.84
2023-02-17T13:11:03.651Z,101178.91
2023-02-17T13:13:33.806Z,101178.91
2023-02-17T13:16:12.259Z,101173.91
2023-02-17T13:18:42.396Z,101176.66
2023-02-17T13:21:22.738Z,101172.25
2023-02-17T13:24:26.624Z,101171.13
2023-02-17T13:26:53.473Z,101171.97
2023-02-17T13:29:25.892Z,101174.66
2023-02-17T13:31:54.663Z,101169.94
2023-02-17T13:34:44.392Z,101175.75
2023-02-17T13:37:40.861Z,101183.25
2023-02-17T13:40:16.457Z,101176.59
2023-02-17T13:42:48.718Z,101186.03
2023-02-17T13:45:26.958Z,101185.72
2023-02-17T13:48:19.720Z,101209.78
2023-02-17T13:50:47.896Z,101213.97
2023-02-17T13:53:21.039Z,101215.66
2023-02-17T13:55:47.983Z,101206.50
2023-02-17T13:58:14.777Z,101198.22
2023-02-17T14:00:44.223Z,101191.56
2023-02-17T14:03:36.769Z,101188.25
2023-02-17T14:06:04.061Z,101189.91
2023-02-17T14:08:43.411Z,101183.78
2023-02-17T14:11:13.866Z,101192.00
2023-02-17T14:13:45.884Z,101205.78
2023-02-17T14:16:35.104Z,101198.63
2023-02-17T14:19:01.887Z,101203.91
2023-02-17T14:21:28.863Z,101212.50
2023-02-17T14:23:57.835Z,101210.78
2023-02-17T14:26:47.572Z,101215.22
2023-02-17T14:29:15.553Z,101218.25
2023-02-17T14:31:42.213Z,101217.50
2023-02-17T14:34:25.531Z,101229.72
2023-02-17T14:36:52.258Z,101231.94
2023-02-17T14:39:19.386Z,101229.16
2023-02-17T14:41:46.156Z,101236.66
2023-02-17T14:44:13.036Z,101238.88
2023-02-17T14:46:40.172Z,101244.72
2023-02-17T14:49:06.996Z,101251.38
2023-02-17T14:51:36.346Z,101249.72
2023-02-17T14:54:12.685Z,101249.72
2023-02-17T14:56:45.586Z,101250.03
2023-02-17T14:59:12.256Z,101250.31
2023-02-17T15:01:39.107Z,101271.34
2023-02-17T15:04:05.766Z,101288.44
2023-02-17T15:06:54.506Z,101296.22
2023-02-17T15:09:30.814Z,101292.13
2023-02-17T15:11:58.485Z,101292.94
2023-02-17T15:14:25.330Z,101290.19
2023-02-17T15:16:52.034Z,101299.31
2023-02-17T15:19:18.941Z,101292.94
2023-02-17T15:21:48.940Z,101291.00
2023-02-17T15:24:27.291Z,101278.56
2023-02-17T15:26:56.228Z,101275.50
2023-02-17T15:29:25.289Z,101284.09
2023-02-17T15:31:54.365Z,101284.91
2023-02-17T15:34:24.281Z,101271.41
2023-02-17T15:36:50.944Z,101265.88
2023-02-17T15:39:20.078Z,101278.56
2023-02-17T15:41:48.588Z,101290.47
2023-02-17T15:44:24.564Z,101303.47
2023-02-17T15:46:53.234Z,101295.16
2023-02-17T15:49:20.606Z,101303.78
2023-02-17T15:51:47.482Z,101301.84
2023-02-17T15:54:16.396Z,101300.69
2023-02-17T15:56:48.803Z,101306.53
2023-02-17T15:59:22.186Z,101313.41
2023-02-17T16:01:50.756Z,101322.03
2023-02-17T16:04:17.574Z,101336.13
2023-02-17T16:06:44.769Z,101336.13
2023-02-17T16:09:11.483Z,101333.09
2023-02-17T16:11:47.591Z,101335.03
2023-02-17T16:14:25.474Z,101336.97
2023-02-17T16:16:52.632Z,101349.97
2023-02-17T16:19:19.341Z,101360.75
2023-02-17T16:21:46.085Z,101363.81
2023-02-17T16:24:12.984Z,101369.34
2023-02-17T16:26:40.554Z,101369.34
2023-02-17T16:29:21.978Z,101376.53
2023-02-17T16:31:49.563Z,101373.75
2023-02-17T16:34:17.153Z,101378.78
2023-02-17T16:36:44.329Z,101378.78
2023-02-17T16:39:14.215Z,101391.78
2023-02-17T16:41:41.030Z,101389.84
2023-02-17T16:44:11.838Z,101397.00
2023-02-17T16:46:39.032Z,101400.28
2023-02-17T16:49:18.844Z,101398.66
2023-02-17T16:51:45.714Z,101398.16
2023-02-17T16:54:12.488Z,101389.84
2023-02-17T16:56:46.756Z,101379.34
2023-02-17T16:59:18.872Z,101375.44
2023-02-17T17:01:46.899Z,101388.19
2023-02-17T17:04:15.462Z,101387.34
2023-02-17T17:06:45.753Z,101399.25
2023-02-17T17:09:21.251Z,101417.50
2023-02-17T17:11:48.920Z,101410.31
2023-02-17T17:14:15.761Z,101423.84
2023-02-17T17:16:46.518Z,101415.84
2023-02-17T17:19:13.812Z,101418.09
2023-02-17T17:21:40.712Z,101418.88
2023-02-17T17:24:07.325Z,101431.63
2023-02-17T17:26:39.318Z,101434.69
2023-02-17T17:29:11.534Z,101430.25
2023-02-17T17:31:38.328Z,101420.03
2023-02-17T17:34:05.483Z,101427.50
2023-02-17T17:36:38.680Z,101439.38
2023-02-17T17:39:08.233Z,101451.28
2023-02-17T17:41:35.169Z,101460.69
2023-02-17T17:44:02.136Z,101455.16
2023-02-17T17:46:31.099Z,101443.25
2023-02-17T17:49:00.007Z,101438.56
2023-02-17T17:51:30.014Z,101438.56
2023-02-17T17:53:57.631Z,101441.84
2023-02-17T17:56:30.719Z,101440.16
2023-02-17T17:58:59.756Z,101439.03
2023-02-17T18:01:27.318Z,101452.06
2023-02-17T18:03:54.839Z,101455.41
2023-02-17T18:06:25.952Z,101467.31
2023-02-17T18:08:54.611Z,101475.06
2023-02-17T18:11:24.004Z,101467.59
2023-02-17T18:13:52.777Z,101467.31
2023-02-17T18:16:22.640Z,101478.38
2023-02-17T18:18:50.742Z,101472.84
2023-02-17T18:21:17.414Z,101469.53
2023-02-17T18:23:44.560Z,101466.47
2023-02-17T18:26:12.178Z,101476.72
2023-02-17T18:28:39.279Z,101486.94
2023-02-17T18:31:10.344Z,101491.66
2023-02-17T18:33:38.224Z,101491.66
2023-02-17T18:36:09.789Z,101493.06
2023-02-17T18:38:36.718Z,101501.09
2023-02-17T18:41:04.706Z,101505.78
2023-02-17T18:43:31.842Z,101507.41
2023-02-17T18:45:59.157Z,101503.84
2023-02-17T18:48:26.300Z,101508.81
2023-02-17T18:50:53.302Z,101509.38
2023-02-17T18:53:19.911Z,101520.47
2023-02-17T18:55:46.640Z,101517.69
2023-02-17T18:58:13.568Z,101516.84
2023-02-17T19:00:40.245Z,101514.38
2023-02-17T19:03:07.041Z,101521.56
2023-02-17T19:05:33.825Z,101531.78
2023-02-17T19:08:00.571Z,101538.16
2023-02-17T19:10:27.349Z,101538.16
2023-02-17T19:12:54.198Z,101527.09
2023-02-17T19:15:21.125Z,101530.38
2023-02-17T19:17:48.865Z,101532.63
2023-02-17T19:20:17.119Z,101527.09
2023-02-17T19:22:43.885Z,101532.63
2023-02-17T19:25:10.998Z,101548.91
2023-02-17T19:27:40.769Z,101546.72
2023-02-17T19:30:09.402Z,101550.88
2023-02-17T19:32:36.416Z,101546.16
2023-02-17T19:35:03.324Z,101542.59
2023-02-17T19:37:30.141Z,101539.81
2023-02-17T19:39:57.016Z,101542.03
2023-02-17T19:42:23.812Z,101544.53
2023-02-17T19:44:50.726Z,101546.72
2023-02-17T19:47:17.530Z,101559.47
2023-02-17T19:49:44.226Z,101557.78
2023-02-17T19:52:11.228Z,101557.53
2023-02-17T19:54:38.065Z,101561.38
2023-02-17T19:57:04.903Z,101551.47
2023-02-17T19:59:33.690Z,101558.09
2023-02-17T20:02:00.608Z,101558.94
2023-02-17T20:04:27.608Z,101562.53
2023-02-17T20:06:54.471Z,101563.63
2023-02-17T20:09:22.596Z,101567.75
2023-02-17T20:11:53.055Z,101565.81
2023-02-17T20:14:21.451Z,101558.63
2023-02-17T20:16:48.623Z,101567.22
2023-02-17T20:19:16.211Z,101558.94
2023-02-17T20:21:44.910Z,101557.00
2023-02-17T20:24:15.249Z,101555.31
2023-02-17T20:26:44.518Z,101561.38
2023-02-17T20:29:12.188Z,101565.28
2023-02-17T20:31:40.666Z,101563.31
2023-02-17T20:34:09.694Z,101568.06
2023-02-17T20:36:36.531Z,101568.06
2023-02-17T20:39:04.224Z,101568.88
2023-02-17T20:41:31.015Z,101563.06
2023-02-17T20:44:01.495Z,101569.69
2023-02-17T20:46:29.547Z,101578.56
2023-02-17T20:48:56.816Z,101572.47
2023-02-17T20:51:23.774Z,101569.69
2023-02-17T20:53:51.172Z,101573.59
2023-02-17T20:56:21.082Z,101580.75
2023-02-17T20:58:48.778Z,101571.94
2023-02-17T21:01:15.515Z,101574.41
2023-02-17T21:03:42.373Z,101573.59
2023-02-17T21:06:34.595Z,101575.53
2023-02-17T21:09:04.945Z,101585.47
2023-02-17T21:11:32.005Z,101582.44
2023-02-17T21:13:58.818Z,101584.66
2023-02-17T21:16:30.857Z,101583.00
2023-02-17T21:18:58.932Z,101590.75
2023-02-17T21:21:27.602Z,101587.69
2023-02-17T21:23:55.401Z,101597.66
2023-02-17T21:26:22.056Z,101591.81
2023-02-17T21:28:48.738Z,101590.19
2023-02-17T21:31:16.395Z,101579.94
2023-02-17T21:33:43.531Z,101579.13
2023-02-17T21:36:12.652Z,101579.13
2023-02-17T21:38:40.079Z,101577.47
2023-02-17T21:41:10.785Z,101576.06
2023-02-17T21:43:56.910Z,101571.09
2023-02-17T21:46:23.812Z,101573.59
2023-02-17T21:48:52.459Z,101577.47
2023-02-17T21:51:19.906Z,101586.03
2023-02-17T21:53:46.711Z,101587.69
2023-02-17T21:56:13.634Z,101576.63
2023-02-17T21:58:40.419Z,101571.94
2023-02-17T22:01:07.969Z,101571.94
2023-02-17T22:03:34.821Z,101577.47
2023-02-17T22:06:01.713Z,101573.03
2023-02-17T22:08:28.528Z,101566.41
2023-02-17T22:10:55.435Z,101571.09
2023-02-17T22:13:22.210Z,101574.69
2023-02-17T22:15:57.945Z,101567.78
2023-02-17T22:18:24.611Z,101579.41
2023-02-17T22:20:51.275Z,101570.25
2023-02-17T22:23:18.037Z,101568.06
2023-02-17T22:25:44.821Z,101559.75
2023-02-17T22:28:13.477Z,101553.66
2023-02-17T22:30:41.044Z,101556.44
2023-02-17T22:33:07.779Z,101555.31
2023-02-17T22:35:34.443Z,101557.56
2023-02-17T22:38:01.038Z,101553.66
2023-02-17T22:40:27.638Z,101561.97
2023-02-17T22:42:54.426Z,101555.31
2023-02-17T22:45:21.263Z,101549.78
2023-02-17T22:47:47.958Z,101547.03
2023-02-17T22:50:14.740Z,101548.13
2023-02-17T22:52:41.354Z,101557.56
2023-02-17T22:55:08.099Z,101553.94
2023-02-17T22:57:34.783Z,101547.56
2023-02-17T23:00:01.959Z,101548.09
2023-02-17T23:02:28.786Z,101548.91
2023-02-17T23:04:55.577Z,101545.59
2023-02-17T23:07:23.572Z,101546.41
2023-02-17T23:09:50.377Z,101544.78
2023-02-17T23:12:17.062Z,101546.41
2023-02-17T23:14:43.992Z,101547.56
2023-02-17T23:17:12.921Z,101540.06
2023-02-17T23:19:40.904Z,101537.00
2023-02-17T23:22:10.766Z,101539.25
2023-02-17T23:24:37.981Z,101539.25
2023-02-17T23:27:05.114Z,101546.41
2023-02-17T23:29:32.914Z,101549.19
2023-02-17T23:32:00.446Z,101547.25
2023-02-17T23:34:28.461Z,101538.66
2023-02-17T23:36:55.466Z,101532.53
2023-02-17T23:39:22.513Z,101526.22
2023-02-17T23:41:49.166Z,101531.19
2023-02-17T23:44:16.151Z,101537.00
2023-02-17T23:46:45.117Z,101526.78
2023-02-17T23:49:14.185Z,101525.94
2023-02-17T23:51:41.780Z,101539.78
2023-02-17T23:54:08.474Z,101526.78
2023-02-17T23:56:36.615Z,101525.13
2023-02-17T23:59:03.756Z,101523.72
